Young Ward, Utah
Current Conditions -  °F | °C
As of 9:35 PM on Monday 20 Oct 2014 (Local Time) from KBMC Reporting Station
Clear Clear  
Wind Chill: 56°   Ceiling: Unl
Heat Index: 56°   Visibility: 10mi
Dew Point: 41°   Wind: 0mph
Humidity: 57%   Direction: NA
Pressure: 29.9"   Gusts: NA
Location:  41.645°N, 111.959°W
Report Text: KBMC 210335Z AUTO 00000KT 10SM CLR 14/05 A2990 RMK AO1 T01350051
Loading
Personal Weather Stations






























Interactive Weather Map
Tropical Storm Tracking
New forecast layout! Learn more

10-Day Weather Forecast

Advertisements
Track Severe Weather on mobile